createdAt,value
2023-05-18T00:00:23.718Z,3.87
2023-05-18T00:02:52.996Z,3.73
2023-05-18T00:05:23.473Z,3.83
2023-05-18T00:07:53.483Z,3.73
2023-05-18T00:10:22.713Z,3.90
2023-05-18T00:12:51.981Z,4.30
2023-05-18T00:15:22.166Z,4.20
2023-05-18T00:17:53.567Z,4.27
2023-05-18T00:20:26.888Z,4.17
2023-05-18T00:22:55.946Z,4.67
2023-05-18T00:25:25.289Z,4.80
2023-05-18T00:27:54.450Z,4.77
2023-05-18T00:30:24.820Z,4.30
2023-05-18T00:32:53.759Z,4.80
2023-05-18T00:35:24.477Z,5.20
2023-05-18T00:37:53.452Z,4.80
2023-05-18T00:40:24.355Z,4.30
2023-05-18T00:42:53.397Z,4.40
2023-05-18T00:45:22.432Z,4.60
2023-05-18T00:47:51.744Z,4.50
2023-05-18T00:50:20.934Z,4.60
2023-05-18T00:52:51.721Z,4.40
2023-05-18T00:55:20.819Z,4.10
2023-05-18T00:57:50.608Z,4.40
2023-05-18T01:00:20.995Z,4.53
2023-05-18T01:02:51.591Z,4.27
2023-05-18T01:05:22.515Z,4.53
2023-05-18T01:07:53.186Z,4.17
2023-05-18T01:10:25.361Z,4.37
2023-05-18T01:13:02.793Z,4.40
2023-05-18T01:15:36.846Z,4.00
2023-05-18T01:18:15.430Z,4.23
2023-05-18T01:20:50.862Z,4.00
2023-05-18T01:23:47.479Z,4.30
2023-05-18T01:26:24.934Z,4.13
2023-05-18T01:28:55.861Z,4.30
2023-05-18T01:31:25.463Z,4.40
2023-05-18T01:33:54.570Z,4.87
2023-05-18T01:36:23.598Z,5.00
2023-05-18T01:38:54.135Z,5.37
2023-05-18T01:41:27.573Z,5.37
2023-05-18T01:44:03.163Z,5.23
2023-05-18T01:46:42.170Z,5.23
2023-05-18T01:49:18.453Z,5.20
2023-05-18T01:51:50.093Z,5.63
2023-05-18T01:54:22.023Z,5.30
2023-05-18T01:56:56.323Z,5.50
2023-05-18T01:59:26.781Z,5.20
2023-05-18T02:01:59.864Z,5.00
2023-05-18T02:04:29.518Z,5.30
2023-05-18T02:06:58.628Z,4.83
2023-05-18T02:09:27.563Z,4.73
2023-05-18T02:11:57.994Z,4.63
2023-05-18T02:14:28.375Z,4.63
2023-05-18T02:16:57.838Z,4.63
2023-05-18T02:19:27.039Z,4.53
2023-05-18T02:21:56.499Z,4.43
2023-05-18T02:24:25.682Z,4.90
2023-05-18T02:26:54.680Z,4.63
2023-05-18T02:29:25.065Z,4.80
2023-05-18T02:31:54.265Z,4.60
2023-05-18T02:34:24.920Z,4.37
2023-05-18T02:36:53.877Z,4.40
2023-05-18T02:39:22.686Z,4.10
2023-05-18T02:41:51.648Z,4.70
2023-05-18T02:44:21.336Z,4.27
2023-05-18T02:46:52.591Z,4.30
2023-05-18T02:49:21.532Z,4.77
2023-05-18T02:51:50.425Z,4.37
2023-05-18T02:54:19.588Z,4.33
2023-05-18T02:56:49.408Z,4.43
2023-05-18T02:59:33.034Z,4.43
2023-05-18T03:02:03.705Z,4.63
2023-05-18T03:04:32.858Z,4.60
2023-05-18T03:07:03.581Z,4.47
2023-05-18T03:09:32.716Z,4.30
2023-05-18T03:12:01.745Z,4.80
2023-05-18T03:14:31.067Z,4.37
2023-05-18T03:17:00.699Z,4.47
2023-05-18T03:19:31.269Z,4.80
2023-05-18T03:22:01.020Z,4.70
2023-05-18T03:24:30.605Z,4.40
2023-05-18T03:27:02.577Z,4.93
2023-05-18T03:29:31.779Z,4.70
2023-05-18T03:32:04.172Z,4.23
2023-05-18T03:34:35.308Z,4.40
2023-05-18T03:37:04.419Z,4.73
2023-05-18T03:39:34.720Z,4.73
2023-05-18T03:42:03.755Z,4.27
2023-05-18T03:44:32.884Z,4.67
2023-05-18T03:47:01.927Z,4.40
2023-05-18T03:49:31.077Z,4.27
2023-05-18T03:52:02.242Z,4.73
2023-05-18T03:54:32.976Z,4.53
2023-05-18T03:57:02.321Z,4.80
2023-05-18T03:59:32.097Z,4.63
2023-05-18T04:02:01.227Z,4.53
2023-05-18T04:04:31.182Z,4.80
2023-05-18T04:07:06.314Z,4.43
2023-05-18T04:09:35.986Z,4.40
2023-05-18T04:12:06.872Z,4.63
2023-05-18T04:14:35.935Z,4.07
2023-05-18T04:17:06.094Z,4.33
2023-05-18T04:19:36.052Z,4.13
2023-05-18T04:22:11.419Z,4.20
2023-05-18T04:24:41.608Z,4.13
2023-05-18T04:27:12.403Z,4.70
2023-05-18T04:29:44.120Z,4.27
2023-05-18T04:32:13.316Z,4.60
2023-05-18T04:34:42.762Z,4.27
2023-05-18T04:37:13.890Z,3.90
2023-05-18T04:39:43.653Z,4.03
2023-05-18T04:42:18.732Z,4.20
2023-05-18T04:44:52.627Z,4.63
2023-05-18T04:47:25.301Z,4.43
2023-05-18T04:49:54.655Z,3.77
2023-05-18T04:52:25.171Z,3.70
2023-05-18T04:54:54.355Z,3.77
2023-05-18T04:57:23.473Z,3.70
2023-05-18T04:59:53.540Z,3.47
2023-05-18T05:02:24.412Z,3.47
2023-05-18T05:04:53.730Z,4.47
2023-05-18T05:07:26.710Z,3.67
2023-05-18T05:09:58.308Z,3.17
2023-05-18T05:12:27.504Z,2.97
2023-05-18T05:14:56.599Z,3.00
2023-05-18T05:17:26.954Z,3.20
2023-05-18T05:19:55.919Z,2.70
2023-05-18T05:22:32.402Z,2.75
2023-05-18T05:25:02.200Z,3.05
2023-05-18T05:27:31.911Z,2.80
2023-05-18T05:30:01.134Z,2.80
2023-05-18T05:32:31.022Z,2.85
2023-05-18T05:35:00.339Z,2.75
2023-05-18T05:37:29.791Z,3.00
2023-05-18T05:40:00.370Z,2.70
2023-05-18T05:42:31.216Z,2.78
2023-05-18T05:45:02.607Z,2.72
2023-05-18T05:47:32.127Z,2.95
2023-05-18T05:50:01.899Z,3.30
2023-05-18T05:52:35.386Z,2.58
2023-05-18T05:55:08.172Z,2.60
2023-05-18T05:57:40.041Z,2.75
2023-05-18T06:00:11.552Z,2.40
2023-05-18T06:03:04.226Z,2.50
2023-05-18T06:05:43.162Z,2.60
2023-05-18T06:08:18.273Z,2.90
2023-05-18T06:10:50.008Z,2.87
2023-05-18T06:13:20.613Z,2.53
2023-05-18T06:15:57.424Z,2.60
2023-05-18T06:18:26.675Z,2.40
2023-05-18T06:21:42.579Z,2.73
2023-05-18T06:24:32.272Z,2.80
2023-05-18T06:27:32.559Z,2.57
2023-05-18T06:30:19.633Z,2.70
2023-05-18T06:33:02.679Z,2.93
2023-05-18T06:35:31.631Z,2.63
2023-05-18T06:38:00.528Z,2.67
2023-05-18T06:40:30.230Z,2.50
2023-05-18T06:43:01.134Z,2.63
2023-05-18T06:45:52.888Z,2.87
2023-05-18T06:48:31.767Z,2.50
2023-05-18T06:51:00.815Z,2.50
2023-05-18T06:53:31.930Z,2.70
2023-05-18T06:56:01.955Z,2.63
2023-05-18T06:58:33.131Z,2.97
2023-05-18T07:01:05.348Z,2.60
2023-05-18T07:03:34.874Z,2.60
2023-05-18T07:06:04.799Z,2.47
2023-05-18T07:08:34.022Z,2.40
2023-05-18T07:11:03.605Z,2.50
2023-05-18T07:13:34.560Z,2.40
2023-05-18T07:16:03.619Z,2.50
2023-05-18T07:18:37.267Z,2.70
2023-05-18T07:21:06.634Z,2.57
2023-05-18T07:23:35.542Z,2.50
2023-05-18T07:26:04.310Z,2.80
2023-05-18T07:28:34.555Z,2.77
2023-05-18T07:31:03.581Z,2.60
2023-05-18T07:33:33.089Z,2.70
2023-05-18T07:37:16.610Z,2.70
2023-05-18T07:39:46.620Z,2.63
2023-05-18T07:42:15.177Z,2.60
2023-05-18T07:44:49.518Z,2.80
2023-05-18T07:47:19.152Z,2.70
2023-05-18T07:49:48.152Z,2.90
2023-05-18T07:52:16.918Z,2.77
2023-05-18T07:54:45.595Z,2.90
2023-05-18T07:57:14.193Z,2.47
2023-05-18T07:59:43.090Z,2.37
2023-05-18T08:02:13.548Z,2.70
2023-05-18T08:04:42.637Z,2.20
2023-05-18T08:07:12.872Z,2.40
2023-05-18T08:09:42.037Z,2.20
2023-05-18T08:12:10.964Z,2.10
2023-05-18T08:14:39.658Z,2.50
2023-05-18T08:17:08.660Z,2.40
2023-05-18T08:19:41.738Z,2.70
2023-05-18T08:22:11.415Z,2.50
2023-05-18T08:24:40.202Z,2.13
2023-05-18T08:27:11.416Z,2.50
2023-05-18T08:29:40.387Z,2.40
2023-05-18T08:32:09.532Z,2.30
2023-05-18T08:34:39.737Z,2.03
2023-05-18T08:37:08.422Z,2.40
2023-05-18T08:39:38.209Z,2.20
2023-05-18T08:42:13.635Z,2.15
2023-05-18T08:44:50.463Z,2.60
2023-05-18T08:47:26.124Z,2.40
2023-05-18T08:49:58.298Z,2.70
2023-05-18T08:52:28.898Z,2.50
2023-05-18T08:55:00.348Z,2.35
2023-05-18T08:57:31.772Z,2.60
2023-05-18T09:00:04.702Z,2.30
2023-05-18T09:02:34.947Z,2.22
2023-05-18T09:05:05.872Z,2.63
2023-05-18T09:07:35.533Z,2.30
2023-05-18T09:10:05.748Z,2.72
2023-05-18T09:12:36.323Z,2.67
2023-05-18T09:15:05.714Z,2.92
2023-05-18T09:17:34.463Z,2.40
2023-05-18T09:20:07.198Z,2.22
2023-05-18T09:22:36.605Z,2.22
2023-05-18T09:25:07.168Z,2.50
2023-05-18T09:27:35.833Z,2.50
2023-05-18T09:30:05.083Z,2.08
2023-05-18T09:32:37.671Z,2.13
2023-05-18T09:35:09.230Z,2.40
2023-05-18T09:37:38.141Z,2.10
2023-05-18T09:40:08.417Z,2.42
2023-05-18T09:42:38.537Z,2.65
2023-05-18T09:45:17.848Z,2.30
2023-05-18T09:47:46.710Z,2.28
2023-05-18T09:50:19.962Z,2.40
2023-05-18T09:52:49.552Z,2.40
2023-05-18T09:55:19.300Z,2.33
2023-05-18T09:57:50.150Z,2.47
2023-05-18T10:00:22.199Z,2.35
2023-05-18T10:02:53.067Z,2.08
2023-05-18T10:05:26.690Z,2.25
2023-05-18T10:07:59.342Z,2.53
2023-05-18T10:10:29.851Z,2.53
2023-05-18T10:12:59.069Z,2.33
2023-05-18T10:15:28.408Z,2.20
2023-05-18T10:17:58.689Z,2.20
2023-05-18T10:20:29.043Z,2.20
2023-05-18T10:23:00.034Z,2.45
2023-05-18T10:25:30.468Z,2.42
2023-05-18T10:28:11.519Z,2.20
2023-05-18T10:30:42.570Z,2.30
2023-05-18T10:33:24.578Z,2.53
2023-05-18T10:35:59.730Z,2.50
2023-05-18T10:38:29.880Z,2.17
2023-05-18T10:41:00.459Z,2.40
2023-05-18T10:43:30.184Z,2.58
2023-05-18T10:46:02.205Z,2.30
2023-05-18T10:48:31.843Z,2.65
2023-05-18T10:51:05.622Z,2.67
2023-05-18T10:53:36.755Z,2.58
2023-05-18T10:56:08.007Z,2.45
2023-05-18T10:58:38.444Z,2.63
2023-05-18T11:01:10.897Z,2.30
2023-05-18T11:03:41.117Z,2.33
2023-05-18T11:06:12.947Z,2.20
2023-05-18T11:08:48.049Z,2.20
2023-05-18T11:11:19.323Z,2.40
2023-05-18T11:13:51.654Z,2.20
2023-05-18T11:16:21.284Z,2.50
2023-05-18T11:18:51.549Z,2.60
2023-05-18T11:21:35.824Z,2.40
2023-05-18T11:24:24.987Z,2.63
2023-05-18T11:26:55.304Z,2.33
2023-05-18T11:29:26.145Z,2.33
2023-05-18T11:31:56.489Z,2.80
2023-05-18T11:34:46.089Z,2.53
2023-05-18T11:37:17.517Z,2.75
2023-05-18T11:40:00.048Z,2.45
2023-05-18T11:42:35.404Z,2.42
2023-05-18T11:45:11.474Z,2.40
2023-05-18T11:47:41.621Z,2.65
2023-05-18T11:50:13.029Z,2.30
2023-05-18T11:52:53.809Z,2.63
2023-05-18T11:55:23.010Z,2.40
2023-05-18T11:57:53.568Z,2.13
2023-05-18T12:00:22.797Z,2.22
2023-05-18T12:02:52.934Z,2.40
2023-05-18T12:05:22.672Z,2.20
2023-05-18T12:07:55.388Z,2.33
2023-05-18T12:10:24.434Z,2.15
2023-05-18T12:12:54.483Z,2.50
2023-05-18T12:15:24.801Z,2.33
2023-05-18T12:17:53.898Z,2.17
2023-05-18T12:20:25.225Z,2.40
2023-05-18T12:22:57.368Z,2.10
2023-05-18T12:25:28.287Z,2.25
2023-05-18T12:27:57.972Z,1.88
2023-05-18T12:30:35.531Z,2.05
2023-05-18T12:33:05.103Z,2.25
2023-05-18T12:35:34.265Z,2.25
2023-05-18T12:38:04.808Z,2.58
2023-05-18T12:40:44.886Z,2.17
2023-05-18T12:43:14.441Z,1.95
2023-05-18T12:45:46.119Z,2.40
2023-05-18T12:48:15.337Z,2.45
2023-05-18T12:50:49.041Z,2.13
2023-05-18T12:53:19.848Z,2.28
2023-05-18T12:55:58.310Z,2.20
2023-05-18T12:58:27.275Z,2.25
2023-05-18T13:00:56.308Z,2.70
2023-05-18T13:03:25.205Z,2.70
2023-05-18T13:06:05.002Z,2.20
2023-05-18T13:08:36.316Z,2.30
2023-05-18T13:11:13.446Z,2.15
2023-05-18T13:14:01.281Z,2.53
2023-05-18T13:16:30.865Z,2.50
2023-05-18T13:19:01.533Z,2.33
2023-05-18T13:21:31.006Z,2.80
2023-05-18T13:24:01.289Z,2.55
2023-05-18T13:26:30.345Z,2.50
2023-05-18T13:29:00.407Z,2.50
2023-05-18T13:31:30.706Z,2.33
2023-05-18T13:33:59.477Z,2.30
2023-05-18T13:36:29.804Z,2.80
2023-05-18T13:38:58.772Z,2.30
2023-05-18T13:41:30.245Z,2.47
2023-05-18T13:43:58.995Z,2.83
2023-05-18T13:46:27.946Z,2.50
2023-05-18T13:48:56.784Z,2.72
2023-05-18T13:51:26.010Z,2.75
2023-05-18T13:53:54.789Z,2.58
2023-05-18T13:56:23.887Z,2.60
2023-05-18T13:58:54.283Z,2.67
2023-05-18T14:01:23.601Z,2.70
2023-05-18T14:03:53.148Z,2.42
2023-05-18T14:06:23.408Z,2.28
2023-05-18T14:08:55.068Z,2.30
2023-05-18T14:11:23.867Z,2.20
2023-05-18T14:13:54.206Z,2.40
2023-05-18T14:16:23.142Z,2.65
2023-05-18T14:18:52.087Z,2.50
2023-05-18T14:21:21.048Z,2.50
2023-05-18T14:23:49.852Z,2.38
2023-05-18T14:26:18.733Z,2.30
2023-05-18T14:28:47.678Z,1.90
2023-05-18T14:31:17.941Z,2.42
2023-05-18T14:33:46.902Z,2.13
2023-05-18T14:36:15.678Z,2.40
2023-05-18T14:38:46.334Z,2.30
2023-05-18T14:41:15.254Z,2.00
2023-05-18T14:43:44.117Z,2.22
2023-05-18T14:46:12.760Z,2.20
2023-05-18T14:48:42.942Z,2.17
2023-05-18T14:51:11.796Z,2.38
2023-05-18T14:53:40.528Z,2.10
2023-05-18T14:56:09.808Z,2.08
2023-05-18T14:58:38.457Z,2.10
2023-05-18T15:01:07.349Z,2.30
2023-05-18T15:03:36.142Z,1.75
2023-05-18T15:06:06.676Z,2.10
2023-05-18T15:08:35.666Z,2.03
2023-05-18T15:11:04.448Z,2.00
2023-05-18T15:13:33.295Z,2.60
2023-05-18T15:16:02.092Z,2.15
2023-05-18T15:18:30.938Z,2.28
2023-05-18T15:20:59.917Z,1.90
2023-05-18T15:23:30.309Z,2.33
2023-05-18T15:25:59.255Z,2.10
2023-05-18T15:28:28.049Z,1.92
2023-05-18T15:30:57.131Z,2.05
2023-05-18T15:33:26.029Z,1.90
2023-05-18T15:35:54.848Z,1.85
2023-05-18T15:38:23.608Z,1.92
2023-05-18T15:40:53.814Z,2.00
2023-05-18T15:43:24.166Z,2.03
2023-05-18T15:45:53.072Z,1.90
2023-05-18T15:48:21.954Z,1.92
2023-05-18T15:50:51.061Z,2.30
2023-05-18T15:53:19.795Z,2.00
2023-05-18T15:55:50.855Z,1.92
2023-05-18T15:58:21.372Z,2.03
2023-05-18T16:00:50.209Z,1.77
2023-05-18T16:03:19.348Z,1.75
2023-05-18T16:05:48.456Z,2.00
2023-05-18T16:08:17.266Z,2.10
2023-05-18T16:10:45.923Z,1.88
2023-05-18T16:13:14.976Z,2.05
2023-05-18T16:15:46.263Z,2.15
2023-05-18T16:18:15.292Z,1.92
2023-05-18T16:20:44.052Z,2.10
2023-05-18T16:23:12.882Z,1.70
2023-05-18T16:25:41.776Z,1.92
2023-05-18T16:30:39.228Z,1.73
2023-05-18T16:33:09.589Z,2.05
2023-05-18T16:35:38.482Z,1.88
2023-05-18T16:38:07.505Z,2.00
2023-05-18T16:40:36.213Z,2.00
2023-05-18T16:43:04.984Z,2.30
2023-05-18T16:45:33.799Z,1.83
2023-05-18T16:48:03.946Z,1.67
2023-05-18T16:50:34.310Z,1.88
2023-05-18T16:53:03.186Z,2.00
2023-05-18T16:55:32.098Z,1.70
2023-05-18T16:58:00.819Z,1.80
2023-05-18T17:00:29.789Z,2.00
2023-05-18T17:02:58.758Z,1.88
2023-05-18T17:05:27.512Z,1.88
2023-05-18T17:07:57.770Z,1.80
2023-05-18T17:10:26.561Z,1.92
2023-05-18T17:12:55.367Z,1.83
2023-05-18T17:15:24.085Z,1.70
2023-05-18T17:17:53.118Z,1.90
2023-05-18T17:20:21.923Z,1.90
2023-05-18T17:22:50.956Z,1.90
2023-05-18T17:25:21.484Z,1.90
2023-05-18T17:27:50.314Z,2.15
2023-05-18T17:30:18.983Z,2.00
2023-05-18T17:32:50.690Z,2.13
2023-05-18T17:35:19.687Z,1.95
2023-05-18T17:37:48.944Z,1.83
2023-05-18T17:40:17.620Z,2.03
2023-05-18T17:42:47.905Z,2.00
2023-05-18T17:45:18.186Z,2.03
2023-05-18T17:47:47.352Z,1.80
2023-05-18T17:50:16.036Z,1.80
2023-05-18T17:52:44.810Z,2.00
2023-05-18T17:55:15.158Z,2.10
2023-05-18T17:57:45.397Z,2.00
2023-05-18T18:00:17.700Z,2.15
2023-05-18T18:02:46.538Z,2.30
2023-05-18T18:05:15.399Z,2.10
2023-05-18T18:07:44.195Z,2.20
2023-05-18T18:10:12.875Z,2.22
2023-05-18T18:12:41.428Z,2.13
2023-05-18T18:15:11.387Z,2.22
2023-05-18T18:17:41.804Z,2.17
2023-05-18T18:20:11.292Z,2.53
2023-05-18T18:22:40.162Z,2.30
2023-05-18T18:25:09.367Z,1.90
2023-05-18T18:27:38.017Z,2.30
2023-05-18T18:30:08.125Z,2.20
2023-05-18T18:32:36.918Z,2.00
2023-05-18T18:35:08.011Z,1.80
2023-05-18T18:37:37.134Z,2.42
2023-05-18T18:40:07.926Z,2.40
2023-05-18T18:42:36.806Z,2.47
2023-05-18T18:45:06.431Z,2.10
2023-05-18T18:47:35.401Z,2.07
2023-05-18T18:50:05.414Z,2.30
2023-05-18T18:52:36.951Z,2.20
2023-05-18T18:55:06.565Z,2.37
2023-05-18T18:57:35.548Z,2.10
2023-05-18T19:00:06.991Z,2.23
2023-05-18T19:02:35.765Z,2.00
2023-05-18T19:05:05.540Z,2.10
2023-05-18T19:07:34.631Z,2.27
2023-05-18T19:10:05.632Z,2.10
2023-05-18T19:12:34.625Z,2.20
2023-05-18T19:15:03.369Z,2.17
2023-05-18T19:17:32.321Z,2.10
2023-05-18T19:20:01.122Z,1.97
2023-05-18T19:22:29.801Z,2.00
2023-05-18T19:24:58.620Z,2.30
2023-05-18T19:27:29.205Z,2.20
2023-05-18T19:29:59.115Z,2.23
2023-05-18T19:32:29.951Z,2.20
2023-05-18T19:34:58.934Z,2.40
2023-05-18T19:37:27.668Z,2.23
2023-05-18T19:39:56.418Z,2.03
2023-05-18T19:42:25.151Z,1.87
2023-05-18T19:44:55.480Z,2.20
2023-05-18T19:47:24.431Z,2.10
2023-05-18T19:49:53.378Z,1.87
2023-05-18T19:52:22.281Z,2.10
2023-05-18T19:54:51.312Z,1.90
2023-05-18T19:57:21.462Z,2.20
2023-05-18T19:59:50.238Z,2.17
2023-05-18T20:02:20.572Z,1.97
2023-05-18T20:04:50.231Z,1.80
2023-05-18T20:07:20.692Z,1.90
2023-05-18T20:09:50.041Z,2.00
2023-05-18T20:12:19.789Z,2.30
2023-05-18T20:14:48.809Z,2.20
2023-05-18T20:17:17.761Z,1.90
2023-05-18T20:19:51.006Z,2.30
2023-05-18T20:22:20.051Z,1.90
2023-05-18T20:24:49.019Z,1.90
2023-05-18T20:27:17.981Z,1.90
2023-05-18T20:29:46.893Z,2.20
2023-05-18T20:32:15.796Z,1.70
2023-05-18T20:34:44.692Z,2.33
2023-05-18T20:37:15.242Z,2.40
2023-05-18T20:39:50.892Z,2.20
2023-05-18T20:42:22.168Z,1.80
2023-05-18T20:44:52.784Z,2.30
2023-05-18T20:47:21.550Z,2.00
2023-05-18T20:49:50.563Z,1.70
2023-05-18T20:52:20.731Z,2.07
2023-05-18T20:54:49.667Z,1.93
2023-05-18T20:57:18.863Z,2.03
2023-05-18T20:59:48.197Z,2.23
2023-05-18T21:02:17.166Z,2.13
2023-05-18T21:04:47.016Z,2.27
2023-05-18T21:07:16.746Z,2.20
2023-05-18T21:09:47.124Z,1.87
2023-05-18T21:12:16.219Z,2.17
2023-05-18T21:14:45.163Z,2.10
2023-05-18T21:17:15.446Z,2.00
2023-05-18T21:19:44.244Z,2.10
2023-05-18T21:22:13.220Z,2.10
2023-05-18T21:24:42.030Z,2.20
2023-05-18T21:27:12.495Z,2.10
2023-05-18T21:29:41.216Z,2.03
2023-05-18T21:32:10.469Z,2.10
2023-05-18T21:34:41.219Z,2.33
2023-05-18T21:37:12.187Z,2.23
2023-05-18T21:39:42.198Z,2.10
2023-05-18T21:42:12.492Z,2.13
2023-05-18T21:44:41.659Z,2.10
2023-05-18T21:47:10.582Z,2.20
2023-05-18T21:49:39.428Z,2.20
2023-05-18T21:52:08.423Z,2.10
2023-05-18T21:54:37.837Z,2.40
2023-05-18T21:57:07.235Z,2.20
2023-05-18T21:59:37.526Z,1.97
2023-05-18T22:02:06.470Z,2.00
2023-05-18T22:04:35.347Z,2.13
2023-05-18T22:07:04.368Z,1.83
2023-05-18T22:09:33.172Z,2.17
2023-05-18T22:12:01.904Z,2.30
2023-05-18T22:14:31.776Z,2.77
2023-05-18T22:17:02.333Z,2.20
2023-05-18T22:19:31.447Z,2.20
2023-05-18T22:22:01.569Z,2.00
2023-05-18T22:24:30.554Z,2.17
2023-05-18T22:26:59.527Z,2.03
2023-05-18T22:29:28.343Z,2.40
2023-05-18T22:31:57.266Z,2.33
2023-05-18T22:34:27.533Z,2.37
2023-05-18T22:36:56.255Z,2.10
2023-05-18T22:39:27.909Z,2.40
2023-05-18T22:41:56.912Z,2.13
2023-05-18T22:44:25.608Z,2.30
2023-05-18T22:46:54.515Z,2.33
2023-05-18T22:49:23.467Z,1.87
2023-05-18T22:51:53.943Z,2.60
2023-05-18T22:54:23.260Z,2.27
2023-05-18T22:56:52.111Z,2.33
2023-05-18T22:59:20.918Z,2.00
2023-05-18T23:01:54.673Z,2.00
2023-05-18T23:04:23.645Z,2.00
2023-05-18T23:06:54.282Z,2.37
2023-05-18T23:09:23.118Z,2.20
2023-05-18T23:11:52.555Z,2.30
2023-05-18T23:14:22.298Z,2.20
2023-05-18T23:16:51.160Z,2.23
2023-05-18T23:19:19.974Z,2.10
2023-05-18T23:21:48.827Z,2.33
2023-05-18T23:24:19.165Z,2.30
2023-05-18T23:26:47.745Z,2.43
2023-05-18T23:29:16.656Z,2.30
2023-05-18T23:31:45.355Z,2.40
2023-05-18T23:34:14.666Z,2.33
2023-05-18T23:36:44.265Z,2.27
2023-05-18T23:39:13.639Z,2.50
2023-05-18T23:41:45.120Z,2.70
2023-05-18T23:44:14.531Z,4.33
2023-05-18T23:46:43.832Z,3.10
2023-05-18T23:49:13.007Z,2.50
2023-05-18T23:51:44.417Z,2.70
2023-05-18T23:54:13.809Z,2.60
2023-05-18T23:56:44.832Z,2.50
2023-05-18T23:59:16.078Z,2.43
